createdAt,value
2023-04-02T00:00:23.941Z,34.57
2023-04-02T00:04:22.437Z,34.17
2023-04-02T00:07:34.305Z,35.52
2023-04-02T00:10:50.710Z,40.62
2023-04-02T00:13:57.419Z,36.82
2023-04-02T00:17:07.597Z,35.22
2023-04-02T00:20:23.057Z,33.94
2023-04-02T00:23:29.666Z,35.32
2023-04-02T00:26:41.573Z,37.18
2023-04-02T00:29:53.052Z,44.50
2023-04-02T00:33:00.980Z,48.18
2023-04-02T00:36:12.170Z,46.14
2023-04-02T00:39:27.496Z,39.82
2023-04-02T00:42:34.625Z,37.98
2023-04-02T00:45:51.309Z,37.57
2023-04-02T00:49:08.264Z,39.83
2023-04-02T00:52:25.202Z,41.85
2023-04-02T00:55:41.975Z,41.54
2023-04-02T00:58:54.864Z,43.15
2023-04-02T01:02:22.840Z,41.83
2023-04-02T01:05:29.920Z,41.77
2023-04-02T01:08:59.753Z,41.20
2023-04-02T01:12:47.245Z,41.12
2023-04-02T01:16:07.716Z,41.08
2023-04-02T01:19:52.875Z,40.77
2023-04-02T01:23:10.373Z,40.97
2023-04-02T01:26:48.222Z,40.00
2023-04-02T01:30:05.474Z,38.93
2023-04-02T01:33:12.719Z,39.67
2023-04-02T01:36:34.351Z,40.09
2023-04-02T01:40:17.960Z,40.61
2023-04-02T01:43:40.148Z,40.44
2023-04-02T01:46:52.762Z,41.36
2023-04-02T01:50:06.239Z,42.97
2023-04-02T01:53:18.863Z,45.41
2023-04-02T01:56:26.018Z,44.72
2023-04-02T01:59:36.947Z,42.90
2023-04-02T02:02:54.506Z,43.10
2023-04-02T02:06:04.543Z,43.97
2023-04-02T02:09:21.445Z,47.41
2023-04-02T02:12:28.605Z,50.86
2023-04-02T02:15:39.400Z,49.97
2023-04-02T02:18:54.337Z,47.00
2023-04-02T02:22:12.486Z,47.17
2023-04-02T02:25:24.040Z,46.12
2023-04-02T02:28:36.707Z,47.56
2023-04-02T02:31:48.931Z,45.36
2023-04-02T02:35:11.520Z,42.82
2023-04-02T02:38:54.098Z,40.92
2023-04-02T02:42:27.818Z,40.51
2023-04-02T02:45:42.249Z,39.86
2023-04-02T02:48:49.748Z,38.36
2023-04-02T02:52:09.643Z,36.16
2023-04-02T02:55:32.859Z,34.22
2023-04-02T02:58:47.020Z,33.69
2023-04-02T03:02:09.981Z,32.43
2023-04-02T03:05:22.213Z,32.31
2023-04-02T03:08:40.670Z,32.74
2023-04-02T03:12:03.037Z,28.14
2023-04-02T03:15:26.316Z,25.72
2023-04-02T03:18:49.288Z,26.65
2023-04-02T03:22:08.840Z,26.17
2023-04-02T03:25:37.433Z,25.32
2023-04-02T03:28:53.338Z,24.98
2023-04-02T03:32:10.700Z,24.97
2023-04-02T03:35:31.894Z,24.43
2023-04-02T03:38:48.651Z,24.41
2023-04-02T03:42:08.608Z,24.90
2023-04-02T03:45:25.426Z,24.49
2023-04-02T03:48:44.094Z,24.55
2023-04-02T03:52:03.704Z,24.30
2023-04-02T03:55:20.798Z,24.91
2023-04-02T03:58:44.232Z,25.21
2023-04-02T04:02:01.857Z,24.99
2023-04-02T04:05:29.613Z,24.89
2023-04-02T04:08:51.067Z,26.35
2023-04-02T04:12:14.090Z,26.15
2023-04-02T04:15:32.142Z,28.72
2023-04-02T04:18:53.113Z,27.66
2023-04-02T04:22:14.468Z,30.49
2023-04-02T04:25:30.108Z,29.29
2023-04-02T04:29:00.770Z,27.68
2023-04-02T04:32:32.313Z,25.04
2023-04-02T04:35:54.650Z,24.04
2023-04-02T04:39:14.796Z,24.26
2023-04-02T04:42:33.111Z,24.10
2023-04-02T04:45:51.845Z,24.74
2023-04-02T04:49:14.342Z,25.04
2023-04-02T04:52:28.955Z,26.16
2023-04-02T04:55:43.267Z,24.79
2023-04-02T04:58:59.713Z,23.54
2023-04-02T05:02:17.707Z,25.19
2023-04-02T05:05:34.374Z,25.72
2023-04-02T05:08:52.197Z,23.35
2023-04-02T05:12:15.164Z,22.53
2023-04-02T05:15:32.823Z,22.73
2023-04-02T05:18:50.746Z,22.17
2023-04-02T05:22:15.826Z,21.81
2023-04-02T05:25:31.460Z,21.81
2023-04-02T05:28:52.026Z,23.39
2023-04-02T05:32:09.788Z,24.57
2023-04-02T05:35:23.929Z,27.37
2023-04-02T05:38:39.953Z,17.85
2023-04-02T05:41:49.588Z,14.12
2023-04-02T05:45:26.183Z,13.03
2023-04-02T05:48:43.562Z,13.20
2023-04-02T05:52:01.881Z,12.72
2023-04-02T05:55:39.349Z,11.00
2023-04-02T05:58:54.254Z,8.12
2023-04-02T06:02:23.430Z,7.40
2023-04-02T06:05:41.057Z,6.98
2023-04-02T06:09:01.096Z,5.82
2023-04-02T06:12:26.508Z,5.41
2023-04-02T06:15:36.672Z,5.21
2023-04-02T06:18:49.945Z,5.55
2023-04-02T06:22:11.518Z,6.01
2023-04-02T06:25:28.723Z,6.13
2023-04-02T06:28:49.304Z,6.63
2023-04-02T06:32:02.917Z,6.60
2023-04-02T06:35:16.115Z,6.18
2023-04-02T06:38:34.160Z,5.98
2023-04-02T06:41:40.911Z,5.96
2023-04-02T06:45:17.408Z,6.53
2023-04-02T06:48:37.362Z,6.13
2023-04-02T06:51:48.644Z,5.26
2023-04-02T06:54:54.670Z,4.58
2023-04-02T06:58:01.959Z,4.15
2023-04-02T07:01:18.140Z,4.29
2023-04-02T07:04:26.605Z,5.02
2023-04-02T07:07:33.818Z,4.30
2023-04-02T07:10:43.238Z,3.54
2023-04-02T07:13:50.452Z,3.42
2023-04-02T07:17:00.462Z,3.27
2023-04-02T07:20:07.089Z,3.22
2023-04-02T07:23:16.962Z,3.25
2023-04-02T07:26:28.570Z,3.82
2023-04-02T07:29:35.170Z,4.88
2023-04-02T07:32:43.679Z,5.49
2023-04-02T07:35:56.287Z,4.97
2023-04-02T07:39:02.244Z,5.06
2023-04-02T07:42:09.038Z,5.92
2023-04-02T07:45:15.920Z,6.40
2023-04-02T07:48:25.246Z,5.23
2023-04-02T07:51:31.151Z,7.25
2023-04-02T07:54:38.671Z,7.74
2023-04-02T07:57:53.554Z,7.29
2023-04-02T08:01:00.545Z,7.36
2023-04-02T08:04:10.181Z,6.58
2023-04-02T08:07:17.211Z,9.90
2023-04-02T08:10:23.451Z,10.31
2023-04-02T08:13:30.181Z,7.89
2023-04-02T08:16:49.153Z,6.66
2023-04-02T08:20:01.467Z,5.79
2023-04-02T08:23:08.904Z,6.06
2023-04-02T08:26:22.251Z,7.25
2023-04-02T08:29:32.365Z,8.37
2023-04-02T08:32:41.326Z,7.06
2023-04-02T08:35:50.866Z,6.00
2023-04-02T08:38:57.666Z,5.55
2023-04-02T08:42:21.282Z,4.88
2023-04-02T08:45:50.392Z,3.74
2023-04-02T08:49:04.091Z,3.51
2023-04-02T08:52:28.075Z,3.10
2023-04-02T08:55:48.007Z,3.21
2023-04-02T08:59:00.824Z,4.02
2023-04-02T09:02:32.070Z,5.37
2023-04-02T09:05:46.124Z,9.29
2023-04-02T09:09:00.528Z,11.30
2023-04-02T09:12:10.212Z,11.58
2023-04-02T09:15:32.045Z,11.73
2023-04-02T09:18:41.821Z,10.72
2023-04-02T09:22:09.241Z,10.42
2023-04-02T09:25:22.901Z,11.26
2023-04-02T09:28:30.456Z,12.91
2023-04-02T09:31:45.277Z,11.42
2023-04-02T09:34:51.319Z,10.56
2023-04-02T09:38:24.666Z,9.64
2023-04-02T09:41:37.796Z,12.67
2023-04-02T09:44:44.601Z,13.02
2023-04-02T09:47:52.061Z,12.99
2023-04-02T09:51:17.656Z,12.02
2023-04-02T09:54:23.536Z,13.55
2023-04-02T09:57:33.722Z,12.60
2023-04-02T10:00:42.195Z,13.23
2023-04-02T10:03:49.282Z,15.51
2023-04-02T10:06:58.212Z,16.51
2023-04-02T10:10:21.585Z,19.15
2023-04-02T10:13:36.725Z,17.22
2023-04-02T10:16:51.348Z,15.58
2023-04-02T10:20:06.603Z,18.95
2023-04-02T10:23:20.351Z,14.65
2023-04-02T10:26:51.399Z,15.52
2023-04-02T10:30:19.406Z,14.99
2023-04-02T10:33:36.124Z,13.61
2023-04-02T10:36:58.305Z,15.64
2023-04-02T10:40:17.295Z,16.09
2023-04-02T10:44:20.242Z,11.91
2023-04-02T10:47:45.443Z,15.15
2023-04-02T10:51:03.356Z,12.72
2023-04-02T10:54:37.327Z,13.28
2023-04-02T10:57:46.513Z,16.68
2023-04-02T11:01:01.650Z,17.63
2023-04-02T11:04:25.203Z,18.69
2023-04-02T11:07:41.931Z,18.18
2023-04-02T11:10:56.247Z,17.10
2023-04-02T11:14:09.781Z,180.91
2023-04-02T11:17:20.964Z,87.04
2023-04-02T11:21:31.801Z,83.05
2023-04-02T11:24:48.630Z,93.36
2023-04-02T11:27:55.693Z,36.91
2023-04-02T11:31:03.330Z,35.57
2023-04-02T11:34:09.634Z,46.96
2023-04-02T11:37:38.544Z,63.31
2023-04-02T11:40:54.992Z,41.14
2023-04-02T11:44:05.742Z,87.27
2023-04-02T11:47:26.619Z,61.90
2023-04-02T11:50:36.290Z,29.00
2023-04-02T11:53:46.578Z,27.98
2023-04-02T11:57:08.232Z,36.60
2023-04-02T12:00:53.289Z,24.63
2023-04-02T12:04:53.240Z,111.95
2023-04-02T12:08:27.678Z,28.60
2023-04-02T12:11:41.761Z,21.54
2023-04-02T12:14:51.505Z,22.10
2023-04-02T12:18:15.836Z,26.32
2023-04-02T12:21:29.889Z,37.28
2023-04-02T12:24:36.896Z,27.92
2023-04-02T12:27:46.729Z,33.67
2023-04-02T12:31:06.170Z,40.11
2023-04-02T12:34:19.862Z,46.00
2023-04-02T12:37:30.932Z,46.32
2023-04-02T12:40:37.170Z,34.28
2023-04-02T12:43:46.616Z,41.49
2023-04-02T12:46:55.727Z,38.93
2023-04-02T12:50:06.073Z,31.02
2023-04-02T12:53:27.335Z,35.70
2023-04-02T12:56:34.201Z,40.78
2023-04-02T12:59:46.688Z,44.57
2023-04-02T13:02:55.910Z,52.19
2023-04-02T13:06:02.357Z,53.51
2023-04-02T13:09:29.701Z,29.51
2023-04-02T13:12:39.982Z,41.33
2023-04-02T13:16:03.064Z,39.84
2023-04-02T13:19:33.839Z,40.26
2023-04-02T13:22:40.590Z,48.88
2023-04-02T13:25:46.572Z,63.50
2023-04-02T13:29:04.123Z,62.77
2023-04-02T13:32:16.472Z,34.02
2023-04-02T13:35:23.209Z,43.55
2023-04-02T13:38:29.181Z,70.57
2023-04-02T13:41:44.349Z,42.72
2023-04-02T13:44:50.337Z,55.38
2023-04-02T13:48:01.442Z,83.52
2023-04-02T13:51:07.516Z,60.87
2023-04-02T13:54:23.998Z,96.67
2023-04-02T13:57:29.944Z,71.27
2023-04-02T14:00:41.289Z,51.37
2023-04-02T14:03:50.425Z,30.49
2023-04-02T14:07:37.189Z,28.97
2023-04-02T14:11:05.989Z,23.05
2023-04-02T14:14:48.835Z,20.14
2023-04-02T14:18:18.406Z,21.62
2023-04-02T14:21:47.773Z,21.00
2023-04-02T14:25:10.027Z,22.14
2023-04-02T14:28:38.333Z,24.63
2023-04-02T14:31:55.813Z,21.35
2023-04-02T14:35:17.209Z,21.33
2023-04-02T14:38:42.306Z,20.22
2023-04-02T14:42:02.629Z,26.35
2023-04-02T14:45:21.102Z,29.38
2023-04-02T14:48:51.486Z,19.02
2023-04-02T14:52:06.983Z,20.53
2023-04-02T14:55:34.291Z,19.95
2023-04-02T14:58:48.834Z,21.30
2023-04-02T15:02:04.683Z,20.08
2023-04-02T15:05:23.236Z,22.05
2023-04-02T15:08:36.395Z,25.65
2023-04-02T15:11:54.362Z,20.72
2023-04-02T15:15:24.333Z,20.41
2023-04-02T15:18:35.776Z,19.21
2023-04-02T15:22:09.274Z,25.05
2023-04-02T15:25:32.682Z,21.12
2023-04-02T15:28:52.120Z,26.15
2023-04-02T15:32:15.372Z,24.99
2023-04-02T15:35:39.050Z,37.73
2023-04-02T15:38:50.673Z,29.07
2023-04-02T15:42:16.433Z,34.52
2023-04-02T15:45:43.896Z,25.91
2023-04-02T15:49:20.438Z,24.18
2023-04-02T15:52:39.510Z,23.93
2023-04-02T15:55:57.594Z,17.61
2023-04-02T15:59:42.656Z,14.01
2023-04-02T16:03:23.228Z,14.47
2023-04-02T16:06:48.336Z,13.56
2023-04-02T16:10:15.779Z,11.74
2023-04-02T16:13:32.855Z,11.62
2023-04-02T16:16:43.285Z,32.27
2023-04-02T16:20:00.015Z,20.37
2023-04-02T16:23:16.156Z,15.03
2023-04-02T16:26:52.444Z,52.01
2023-04-02T16:30:39.845Z,52.57
2023-04-02T16:34:07.360Z,37.42
2023-04-02T16:37:31.862Z,41.09
2023-04-02T16:41:00.541Z,71.91
2023-04-02T16:44:35.371Z,126.84
2023-04-02T16:48:06.234Z,117.40
2023-04-02T16:51:24.259Z,55.64
2023-04-02T16:54:47.833Z,48.80
2023-04-02T16:58:17.355Z,31.41
2023-04-02T17:01:43.462Z,22.83
2023-04-02T17:05:08.081Z,18.47
2023-04-02T17:08:26.192Z,19.77
2023-04-02T17:11:47.731Z,35.20
2023-04-02T17:15:03.241Z,40.13
2023-04-02T17:18:21.162Z,28.85
2023-04-02T17:21:30.655Z,30.61
2023-04-02T17:24:47.443Z,33.32
2023-04-02T17:27:59.435Z,28.23
2023-04-02T17:31:16.692Z,24.35
2023-04-02T17:34:25.931Z,18.92
2023-04-02T17:37:46.147Z,29.27
2023-04-02T17:41:08.334Z,17.19
2023-04-02T17:44:59.315Z,28.43
2023-04-02T17:48:18.341Z,42.35
2023-04-02T17:51:38.509Z,26.42
2023-04-02T17:55:00.841Z,41.23
2023-04-02T17:58:31.657Z,41.90
2023-04-02T18:01:57.572Z,24.74
2023-04-02T18:05:25.265Z,29.13
2023-04-02T18:08:52.267Z,31.71
2023-04-02T18:12:24.124Z,38.57
2023-04-02T18:16:05.085Z,32.84
2023-04-02T18:19:20.693Z,31.29
2023-04-02T18:22:41.296Z,77.36
2023-04-02T18:26:05.683Z,30.33
2023-04-02T18:29:33.227Z,36.32
2023-04-02T18:33:07.626Z,21.87
2023-04-02T18:36:31.407Z,28.25
2023-04-02T18:40:01.792Z,27.52
2023-04-02T18:43:29.338Z,35.83
2023-04-02T18:46:52.390Z,42.02
2023-04-02T18:50:19.368Z,42.53
2023-04-02T18:53:32.392Z,35.48
2023-04-02T18:56:43.465Z,33.67
2023-04-02T19:00:00.597Z,39.30
2023-04-02T19:03:21.763Z,46.41
2023-04-02T19:06:40.101Z,52.00
2023-04-02T19:09:56.134Z,60.79
2023-04-02T19:13:03.419Z,41.85
2023-04-02T19:16:51.101Z,43.21
2023-04-02T19:20:15.556Z,42.32
2023-04-02T19:23:47.401Z,45.06
2023-04-02T19:27:09.846Z,158.41
2023-04-02T19:30:42.114Z,120.02
2023-04-02T19:33:58.480Z,75.13
2023-04-02T19:37:18.249Z,58.48
2023-04-02T19:40:45.974Z,31.19
2023-04-02T19:43:55.395Z,46.83
2023-04-02T19:47:03.097Z,49.83
2023-04-02T19:50:11.732Z,30.67
2023-04-02T19:53:20.133Z,38.56
2023-04-02T19:56:27.157Z,42.07
2023-04-02T19:59:37.226Z,27.59
2023-04-02T20:02:43.072Z,52.26
2023-04-02T20:05:50.100Z,36.02
2023-04-02T20:08:56.476Z,40.04
2023-04-02T20:12:03.657Z,53.13
2023-04-02T20:15:14.311Z,28.71
2023-04-02T20:18:21.811Z,25.23
2023-04-02T20:21:27.885Z,30.04
2023-04-02T20:24:37.921Z,30.21
2023-04-02T20:27:48.195Z,31.48
2023-04-02T20:31:09.832Z,21.86
2023-04-02T20:34:16.849Z,21.68
2023-04-02T20:37:24.711Z,15.57
2023-04-02T20:40:33.285Z,12.99
2023-04-02T20:43:43.582Z,13.43
2023-04-02T20:46:53.498Z,14.78
2023-04-02T20:50:02.639Z,17.19
2023-04-02T20:53:09.157Z,14.05
2023-04-02T20:56:23.554Z,14.80
2023-04-02T20:59:30.117Z,14.70
2023-04-02T21:02:40.214Z,16.84
2023-04-02T21:05:47.762Z,14.37
2023-04-02T21:08:56.073Z,13.90
2023-04-02T21:12:01.900Z,13.47
2023-04-02T21:15:12.640Z,13.71
2023-04-02T21:18:21.604Z,12.34
2023-04-02T21:21:29.076Z,12.10
2023-04-02T21:24:35.702Z,12.34
2023-04-02T21:27:42.720Z,11.89
2023-04-02T21:30:49.541Z,11.71
2023-04-02T21:34:02.934Z,10.20
2023-04-02T21:37:08.815Z,11.87
2023-04-02T21:40:15.604Z,12.37
2023-04-02T21:43:21.626Z,13.27
2023-04-02T21:46:32.464Z,13.50
2023-04-02T21:49:41.079Z,12.05
2023-04-02T21:52:47.740Z,10.63
2023-04-02T21:55:53.751Z,9.61
2023-04-02T21:59:02.454Z,10.89
2023-04-02T22:02:08.355Z,9.94
2023-04-02T22:05:18.253Z,10.03
2023-04-02T22:08:25.860Z,9.05
2023-04-02T22:11:37.506Z,9.20
2023-04-02T22:14:43.297Z,9.37
2023-04-02T22:17:50.196Z,10.22
2023-04-02T22:21:01.988Z,8.53
2023-04-02T22:24:14.377Z,8.90
2023-04-02T22:27:20.307Z,8.54
2023-04-02T22:30:30.156Z,9.43
2023-04-02T22:33:37.363Z,9.48
2023-04-02T22:36:46.721Z,9.72
2023-04-02T22:39:52.582Z,9.76
2023-04-02T22:43:00.292Z,10.00
2023-04-02T22:46:06.816Z,11.25
2023-04-02T22:49:19.552Z,9.90
2023-04-02T22:52:28.214Z,9.59
2023-04-02T22:55:34.996Z,8.89
2023-04-02T22:58:41.896Z,9.66
2023-04-02T23:01:48.588Z,10.66
2023-04-02T23:04:54.502Z,11.06
2023-04-02T23:08:03.863Z,10.80
2023-04-02T23:11:12.879Z,11.45
2023-04-02T23:14:19.607Z,11.71
2023-04-02T23:17:25.675Z,10.99
2023-04-02T23:20:32.486Z,11.32
2023-04-02T23:23:41.173Z,10.83
2023-04-02T23:26:48.093Z,10.63
2023-04-02T23:29:54.965Z,10.36
2023-04-02T23:33:03.461Z,10.09
2023-04-02T23:36:12.103Z,9.71
2023-04-02T23:39:23.252Z,9.52
2023-04-02T23:42:29.092Z,9.45
2023-04-02T23:45:35.877Z,9.71
2023-04-02T23:48:42.613Z,11.01
2023-04-02T23:51:49.629Z,10.86
2023-04-02T23:54:58.075Z,11.29
2023-04-02T23:58:04.858Z,11.27
